Time;durP1;ratioP1;P1;durP2;ratioP2;P2;SDS_P1;SDS_P2;PMS_P1;PMS_P2;Temp;Humidity;BMP_temperature;BMP_pressure;BME280_temperature;BME280_humidity;BME280_pressure;Samples;Min_cycle;Max_cycle;Signal;HPM_P1;HPM_P2
2023/03/15 00:01:25;;;;;;;;;;;;;;;;;;5058663;28;19967;-75
2023/03/15 00:03:51;;;;;;;;;;;;;;;;;;5043859;28;20006;-75
2023/03/15 00:06:16;;;;;;;;;;;;;;;;;;5042649;28;19921;-75
2023/03/15 00:08:46;;;;;;;;;;;;;;;;;;5057295;28;19913;-75
2023/03/15 00:11:11;;;;;;;;;;;;;;;;;;5055789;28;20007;-75
2023/03/15 00:13:36;;;;;;;;;;;;;;;;;;5058436;28;20039;-75
2023/03/15 00:16:04;;;;;;;;;;;;;;;;;;5058253;28;19947;-76
2023/03/15 00:18:29;;;;;;;;;;;;;;;;;;5060780;28;19912;-74
2023/03/15 00:20:54;;;;;;;;;;;;;;;;;;5056964;28;19916;-75
2023/03/15 00:23:19;;;;;;;;;;;;;;;;;;5057433;28;19913;-75
2023/03/15 00:25:45;;;;;;;;;;;;;;;;;;5038384;28;19912;-75
2023/03/15 00:28:10;;;;;;;;;;;;;;;;;;5063199;28;19959;-75
2023/03/15 00:30:36;;;;;;;;;;;;;;;;;;5037691;28;19943;-76
2023/03/15 00:33:04;;;;;;;;;;;;;;;;;;5059338;28;19948;-75
2023/03/15 00:35:29;;;;;;;;;;;;;;;;;;5037925;28;20328;-75
2023/03/15 00:37:54;;;;;;;;;;;;;;;;;;5058507;28;20015;-75
2023/03/15 00:40:20;;;;;;;;;;;;;;;;;;5055005;28;20297;-75
2023/03/15 00:42:49;;;;;;;;;;;;;;;;;;5059573;28;19913;-74
2023/03/15 00:45:14;;;;;;;;;;;;;;;;;;5056136;28;19948;-75
2023/03/15 00:47:39;;;;;;;;;;;;;;;;;;5060260;28;19948;-75
2023/03/15 00:50:04;;;;;;;;;;;;;;;;;;5062871;28;19912;-75
2023/03/15 00:52:29;;;;;;;;;;;;;;;;;;5052234;28;19920;-75
2023/03/15 00:54:54;;;;;;;;;;;;;;;;;;5039230;28;19920;-75
2023/03/15 00:57:19;;;;;;;;;;;;;;;;;;5058279;28;19947;-74
2023/03/15 00:59:44;;;;;;;;;;;;;;;;;;5061619;28;19929;-74
2023/03/15 01:02:10;;;;;;;;;;;;;;;;;;5062077;28;20276;-74
2023/03/15 01:04:35;;;;;;;;;;;;;;;;;;5046215;28;19932;-75
2023/03/15 01:07:00;;;;;;;;;;;;;;;;;;5062666;28;19964;-74
2023/03/15 01:09:25;;;;;;;;;;;;;;;;;;5062872;28;19924;-75
2023/03/15 01:11:50;;;;;;;;;;;;;;;;;;5061264;28;19917;-75
2023/03/15 01:14:15;;;;;;;;;;;;;;;;;;5064492;28;19916;-75
2023/03/15 01:16:41;;;;;;;;;;;;;;;;;;5063099;28;19930;-75
2023/03/15 01:19:06;;;;;;;;;;;;;;;;;;5060899;28;19968;-75
2023/03/15 01:21:31;;;;;;;;;;;;;;;;;;5045352;28;19913;-73
2023/03/15 01:23:56;;;;;;;;;;;;;;;;;;5064996;28;19991;-75
2023/03/15 01:26:21;;;;;;;;;;;;;;;;;;5062510;28;20407;-75
2023/03/15 01:28:46;;;;;;;;;;;;;;;;;;5060854;28;20446;-75
2023/03/15 01:31:11;;;;;;;;;;;;;;;;;;5060966;28;19912;-75
2023/03/15 01:33:36;;;;;;;;;;;;;;;;;;5062907;28;20011;-75
2023/03/15 01:36:01;;;;;;;;;;;;;;;;;;5061433;28;19912;-74
2023/03/15 01:38:27;;;;;;;;;;;;;;;;;;5050151;28;19916;-74
2023/03/15 01:40:52;;;;;;;;;;;;;;;;;;5057836;28;20009;-74
2023/03/15 01:43:17;;;;;;;;;;;;;;;;;;5065134;28;20253;-74
2023/03/15 01:45:42;;;;;;;;;;;;;;;;;;5058471;28;19913;-74
2023/03/15 01:48:08;;;;;;;;;;;;;;;;;;5063856;28;20391;-75
2023/03/15 01:50:33;;;;;;;;;;;;;;;;;;5062216;28;20437;-75
2023/03/15 01:52:59;;;;;;;;;;;;;;;;;;5057141;28;19951;-75
2023/03/15 01:55:24;;;;;;;;;;;;;;;;;;5058811;28;19924;-75
2023/03/15 01:57:49;;;;;;;;;;;;;;;;;;5043450;28;19925;-75
2023/03/15 02:00:14;;;;;;;;;;;;;;;;;;5059812;28;20357;-75
2023/03/15 02:02:39;;;;;;;;;;;;;;;;;;5058694;28;20292;-75
2023/03/15 02:05:08;;;;;;;;;;;;;;;;;;5060991;28;20007;-75
2023/03/15 02:07:34;;;;;;;;;;;;;;;;;;5062378;28;19915;-74
2023/03/15 02:10:00;;;;;;;;;;;;;;;;;;5045636;28;20438;-74
2023/03/15 02:12:26;;;;;;;;;;;;;;;;;;5061026;28;19925;-74
2023/03/15 02:14:52;;;;;;;;;;;;;;;;;;5057026;28;19923;-75
2023/03/15 02:17:18;;;;;;;;;;;;;;;;;;5059260;28;20015;-75
2023/03/15 02:19:43;;;;;;;;;;;;;;;;;;5059511;28;20358;-75
2023/03/15 02:22:08;;;;;;;;;;;;;;;;;;5061617;28;19908;-74
2023/03/15 02:24:33;;;;;;;;;;;;;;;;;;5058883;28;20278;-75
2023/03/15 02:26:58;;;;;;;;;;;;;;;;;;5060843;28;19913;-74
2023/03/15 02:29:23;;;;;;;;;;;;;;;;;;5059805;28;19968;-74
2023/03/15 02:31:49;;;;;;;;;;;;;;;;;;5064112;28;19938;-74
2023/03/15 02:34:14;;;;;;;;;;;;;;;;;;5040849;28;20435;-74
2023/03/15 02:36:40;;;;;;;;;;;;;;;;;;5046678;28;20441;-75
2023/03/15 02:39:05;;;;;;;;;;;;;;;;;;5060466;28;20013;-75
2023/03/15 02:41:30;;;;;;;;;;;;;;;;;;5058123;28;19963;-74
2023/03/15 02:43:56;;;;;;;;;;;;;;;;;;5061224;28;19920;-75
2023/03/15 02:46:21;;;;;;;;;;;;;;;;;;5055960;28;19923;-74
2023/03/15 02:48:46;;;;;;;;;;;;;;;;;;5064767;28;19920;-75
2023/03/15 02:51:11;;;;;;;;;;;;;;;;;;5045614;28;19917;-74
2023/03/15 02:53:36;;;;;;;;;;;;;;;;;;5038036;28;19999;-74
2023/03/15 02:56:02;;;;;;;;;;;;;;;;;;5061833;28;19940;-75
2023/03/15 02:58:27;;;;;;;;;;;;;;;;;;5061687;28;19912;-75
2023/03/15 03:00:52;;;;;;;;;;;;;;;;;;5045799;28;19927;-74
2023/03/15 03:03:17;;;;;;;;;;;;;;;;;;5057756;28;20738;-74
2023/03/15 03:05:43;;;;;;;;;;;;;;;;;;5058307;28;19920;-74
2023/03/15 03:08:08;;;;;;;;;;;;;;;;;;5041356;28;19913;-75
2023/03/15 03:10:33;;;;;;;;;;;;;;;;;;5053144;28;19967;-74
2023/03/15 03:12:58;;;;;;;;;;;;;;;;;;5060324;28;19913;-75
2023/03/15 03:15:23;;;;;;;;;;;;;;;;;;5062207;28;19919;-75
2023/03/15 03:17:48;;;;;;;;;;;;;;;;;;5060264;28;20385;-75
2023/03/15 03:20:13;;;;;;;;;;;;;;;;;;5057077;28;20000;-75
2023/03/15 03:22:39;;;;;;;;;;;;;;;;;;5058375;28;20007;-74
2023/03/15 03:25:05;;;;;;;;;;;;;;;;;;5037836;28;20450;-75
2023/03/15 03:27:30;;;;;;;;;;;;;;;;;;5045411;28;20012;-75
2023/03/15 03:29:55;;;;;;;;;;;;;;;;;;5056855;28;20078;-75
2023/03/15 03:32:20;;;;;;;;;;;;;;;;;;5035552;28;20002;-74
2023/03/15 03:34:47;;;;;;;;;;;;;;;;;;5055699;28;20295;-74
2023/03/15 03:37:12;;;;;;;;;;;;;;;;;;5054303;28;19916;-77
2023/03/15 03:39:37;;;;;;;;;;;;;;;;;;5058871;28;19924;-77
2023/03/15 03:42:03;;;;;;;;;;;;;;;;;;5056601;28;19916;-77
2023/03/15 03:44:28;;;;;;;;;;;;;;;;;;5052573;28;19913;-77
2023/03/15 03:46:54;;;;;;;;;;;;;;;;;;5060221;28;20016;-76
2023/03/15 03:49:20;;;;;;;;;;;;;;;;;;5043448;28;19962;-78
2023/03/15 03:51:45;;;;;;;;;;;;;;;;;;5047524;28;19917;-77
2023/03/15 03:54:10;;;;;;;;;;;;;;;;;;5053974;28;19951;-77
2023/03/15 03:56:35;;;;;;;;;;;;;;;;;;5044522;28;20396;-77
2023/03/15 03:59:00;;;;;;;;;;;;;;;;;;5056418;28;19928;-78
2023/03/15 04:01:25;;;;;;;;;;;;;;;;;;5058318;28;20287;-77
2023/03/15 04:03:51;;;;;;;;;;;;;;;;;;5058288;28;19913;-77
2023/03/15 04:06:16;;;;;;;;;;;;;;;;;;5055509;28;20194;-77
2023/03/15 04:08:42;;;;;;;;;;;;;;;;;;5062766;28;19993;-76
2023/03/15 04:11:07;;;;;;;;;;;;;;;;;;5057156;28;20003;-77
2023/03/15 04:13:32;;;;;;;;;;;;;;;;;;5055458;28;19994;-77
2023/03/15 04:16:00;;;;;;;;;;;;;;;;;;5044291;28;19920;-77
2023/03/15 04:18:25;;;;;;;;;;;;;;;;;;5058699;28;20435;-77
2023/03/15 04:20:53;;;;;;;;;;;;;;;;;;5044507;28;19916;-77
2023/03/15 04:23:18;;;;;;;;;;;;;;;;;;5042554;28;19932;-76
2023/03/15 04:25:43;;;;;;;;;;;;;;;;;;5057731;28;19913;-75
2023/03/15 04:28:09;;;;;;;;;;;;;;;;;;5044288;28;19987;-76
2023/03/15 04:30:34;;;;;;;;;;;;;;;;;;5043255;28;19962;-77
2023/03/15 04:33:02;;;;;;;;;;;;;;;;;;5059943;28;20003;-75
2023/03/15 04:35:27;;;;;;;;;;;;;;;;;;5051990;28;19940;-77
2023/03/15 04:37:52;;;;;;;;;;;;;;;;;;5058695;28;20296;-75
2023/03/15 04:40:17;;;;;;;;;;;;;;;;;;5040861;28;19919;-75
2023/03/15 04:42:42;;;;;;;;;;;;;;;;;;5059415;28;19908;-76
2023/03/15 04:45:07;;;;;;;;;;;;;;;;;;5049928;28;19948;-77
2023/03/15 04:47:32;;;;;;;;;;;;;;;;;;5044911;28;19915;-76
2023/03/15 04:49:58;;;;;;;;;;;;;;;;;;5055100;28;19935;-76
2023/03/15 04:52:23;;;;;;;;;;;;;;;;;;5059575;28;19917;-78
2023/03/15 04:54:48;;;;;;;;;;;;;;;;;;5043785;28;19915;-76
2023/03/15 04:57:13;;;;;;;;;;;;;;;;;;5056607;28;19921;-78
2023/03/15 04:59:39;;;;;;;;;;;;;;;;;;5057360;28;19932;-77
2023/03/15 05:02:04;;;;;;;;;;;;;;;;;;5045231;28;19919;-78
2023/03/15 05:04:29;;;;;;;;;;;;;;;;;;5043898;28;19917;-77
2023/03/15 05:06:54;;;;;;;;;;;;;;;;;;5045202;28;19986;-78
2023/03/15 05:09:20;;;;;;;;;;;;;;;;;;5054042;28;19931;-79
2023/03/15 05:11:46;;;;;;;;;;;;;;;;;;5055684;28;19916;-76
2023/03/15 05:14:11;;;;;;;;;;;;;;;;;;5059569;28;20000;-76
2023/03/15 05:16:36;;;;;;;;;;;;;;;;;;5058312;28;20386;-77
2023/03/15 05:19:03;;;;;;;;;;;;;;;;;;5061384;28;19916;-77
2023/03/15 05:21:28;;;;;;;;;;;;;;;;;;5051375;28;19991;-78
2023/03/15 05:23:53;;;;;;;;;;;;;;;;;;5058301;28;20000;-78
2023/03/15 05:26:18;;;;;;;;;;;;;;;;;;5054668;28;19920;-77
2023/03/15 05:28:44;;;;;;;;;;;;;;;;;;5056056;28;19912;-77
2023/03/15 05:31:09;;;;;;;;;;;;;;;;;;5052345;28;19920;-78
2023/03/15 05:33:34;;;;;;;;;;;;;;;;;;5044003;28;19920;-77
2023/03/15 05:36:00;;;;;;;;;;;;;;;;;;5058160;28;19912;-77
2023/03/15 05:38:25;;;;;;;;;;;;;;;;;;5060917;28;20334;-77
2023/03/15 05:40:50;;;;;;;;;;;;;;;;;;5061584;28;19919;-76
2023/03/15 05:43:15;;;;;;;;;;;;;;;;;;5062621;28;19927;-77
2023/03/15 05:45:41;;;;;;;;;;;;;;;;;;5050161;28;20003;-77
2023/03/15 05:48:06;;;;;;;;;;;;;;;;;;5062538;28;19975;-77
2023/03/15 05:50:32;;;;;;;;;;;;;;;;;;5061055;28;19936;-77
2023/03/15 05:52:57;;;;;;;;;;;;;;;;;;5060731;28;19967;-77
2023/03/15 05:55:22;;;;;;;;;;;;;;;;;;5057370;28;20246;-78
2023/03/15 05:57:47;;;;;;;;;;;;;;;;;;5047866;28;19921;-76
2023/03/15 06:00:13;;;;;;;;;;;;;;;;;;5056992;28;20007;-77
2023/03/15 06:02:38;;;;;;;;;;;;;;;;;;5063242;28;19924;-76
2023/03/15 06:05:04;;;;;;;;;;;;;;;;;;5057826;28;19912;-76
2023/03/15 06:07:29;;;;;;;;;;;;;;;;;;5060012;28;19912;-76
2023/03/15 06:09:54;;;;;;;;;;;;;;;;;;5039327;28;20276;-77
2023/03/15 06:12:19;;;;;;;;;;;;;;;;;;5038010;28;19917;-76
2023/03/15 06:14:44;;;;;;;;;;;;;;;;;;5039198;28;19917;-76
2023/03/15 06:17:09;;;;;;;;;;;;;;;;;;5049535;28;20365;-76
2023/03/15 06:19:34;;;;;;;;;;;;;;;;;;5037567;28;19917;-76
2023/03/15 06:22:01;;;;;;;;;;;;;;;;;;5039736;28;20368;-76
2023/03/15 06:24:27;;;;;;;;;;;;;;;;;;5055980;28;20261;-77
2023/03/15 06:26:55;;;;;;;;;;;;;;;;;;5045029;28;19913;-77
2023/03/15 06:29:21;;;;;;;;;;;;;;;;;;5056124;28;19913;-77
2023/03/15 06:31:48;;;;;;;;;;;;;;;;;;5058225;28;19917;-77
2023/03/15 06:34:13;;;;;;;;;;;;;;;;;;5056568;28;20280;-77
2023/03/15 06:36:38;;;;;;;;;;;;;;;;;;5064930;28;20376;-77
2023/03/15 06:39:04;;;;;;;;;;;;;;;;;;5055788;28;19923;-77
2023/03/15 06:41:31;;;;;;;;;;;;;;;;;;5057919;28;20027;-77
2023/03/15 06:43:56;;;;;;;;;;;;;;;;;;5038528;28;20466;-76
2023/03/15 06:46:21;;;;;;;;;;;;;;;;;;5059436;28;19913;-78
2023/03/15 06:48:46;;;;;;;;;;;;;;;;;;5037415;28;19916;-77
2023/03/15 06:51:13;;;;;;;;;;;;;;;;;;5045662;28;19942;-78
2023/03/15 06:53:38;;;;;;;;;;;;;;;;;;5054952;28;19924;-76
2023/03/15 06:56:03;;;;;;;;;;;;;;;;;;5060080;28;19958;-77
2023/03/15 06:58:28;;;;;;;;;;;;;;;;;;5057903;28;19932;-76
2023/03/15 07:00:53;;;;;;;;;;;;;;;;;;5038231;28;19920;-76
2023/03/15 07:03:21;;;;;;;;;;;;;;;;;;5052874;28;19992;-76
2023/03/15 07:05:48;;;;;;;;;;;;;;;;;;5046108;28;19916;-77
2023/03/15 07:08:14;;;;;;;;;;;;;;;;;;5056318;28;19913;-77
2023/03/15 07:10:39;;;;;;;;;;;;;;;;;;5056197;28;20414;-76
2023/03/15 07:13:05;;;;;;;;;;;;;;;;;;5059373;28;19955;-76
2023/03/15 07:15:30;;;;;;;;;;;;;;;;;;5056562;28;20269;-76
2023/03/15 07:17:56;;;;;;;;;;;;;;;;;;5050449;28;19999;-77
2023/03/15 07:20:21;;;;;;;;;;;;;;;;;;5052835;28;19920;-76
2023/03/15 07:22:46;;;;;;;;;;;;;;;;;;5053845;28;19917;-77
2023/03/15 07:25:11;;;;;;;;;;;;;;;;;;5052991;28;19982;-77
2023/03/15 07:27:36;;;;;;;;;;;;;;;;;;5061635;28;19967;-77
2023/03/15 07:30:02;;;;;;;;;;;;;;;;;;5044231;28;20376;-77
2023/03/15 07:32:27;;;;;;;;;;;;;;;;;;5053754;28;19923;-76
2023/03/15 07:34:53;;;;;;;;;;;;;;;;;;5057486;28;19917;-77
2023/03/15 07:37:18;;;;;;;;;;;;;;;;;;5055722;28;19916;-77
2023/03/15 07:39:44;;;;;;;;;;;;;;;;;;5057239;28;19935;-76
2023/03/15 07:42:09;;;;;;;;;;;;;;;;;;5056504;28;20380;-76
2023/03/15 07:44:34;;;;;;;;;;;;;;;;;;5040394;28;19916;-78
2023/03/15 07:46:59;;;;;;;;;;;;;;;;;;5055504;28;19913;-77
2023/03/15 07:49:24;;;;;;;;;;;;;;;;;;5058792;28;19935;-78
2023/03/15 07:51:50;;;;;;;;;;;;;;;;;;5054626;28;19951;-75
2023/03/15 07:54:15;;;;;;;;;;;;;;;;;;5055866;28;20376;-76
2023/03/15 07:56:40;;;;;;;;;;;;;;;;;;5061684;28;19913;-78
2023/03/15 07:59:05;;;;;;;;;;;;;;;;;;5052136;28;19993;-77
2023/03/15 08:01:30;;;;;;;;;;;;;;;;;;5055267;28;19921;-78
2023/03/15 08:03:55;;;;;;;;;;;;;;;;;;5058203;28;19916;-75
2023/03/15 08:06:20;;;;;;;;;;;;;;;;;;5057930;28;19919;-77
2023/03/15 08:08:46;;;;;;;;;;;;;;;;;;5056609;28;19959;-77
2023/03/15 08:11:11;;;;;;;;;;;;;;;;;;5062422;28;19912;-78
2023/03/15 08:13:36;;;;;;;;;;;;;;;;;;5054309;28;19971;-77
2023/03/15 08:16:01;;;;;;;;;;;;;;;;;;5053237;28;19958;-78
2023/03/15 08:18:29;;;;;;;;;;;;;;;;;;5052187;28;19924;-77
2023/03/15 08:20:55;;;;;;;;;;;;;;;;;;5057594;28;19913;-77
2023/03/15 08:23:20;;;;;;;;;;;;;;;;;;5054752;28;20368;-75
2023/03/15 08:25:45;;;;;;;;;;;;;;;;;;5058851;28;19927;-79
2023/03/15 08:28:11;;;;;;;;;;;;;;;;;;5041798;28;20053;-79
2023/03/15 08:30:36;;;;;;;;;;;;;;;;;;5034670;28;19976;-78
2023/03/15 08:33:01;;;;;;;;;;;;;;;;;;5040783;28;20023;-79
2023/03/15 08:35:26;;;;;;;;;;;;;;;;;;5041627;28;19974;-79
2023/03/15 08:37:51;;;;;;;;;;;;;;;;;;5059603;28;19950;-77
2023/03/15 08:40:17;;;;;;;;;;;;;;;;;;5048645;28;19920;-77
2023/03/15 08:42:43;;;;;;;;;;;;;;;;;;5053601;28;19920;-78
2023/03/15 08:45:08;;;;;;;;;;;;;;;;;;5045590;28;19916;-79
2023/03/15 08:47:36;;;;;;;;;;;;;;;;;;5063249;28;20007;-79
2023/03/15 08:50:01;;;;;;;;;;;;;;;;;;5059242;28;19917;-81
2023/03/15 08:52:26;;;;;;;;;;;;;;;;;;5053122;28;19908;-79
2023/03/15 08:54:51;;;;;;;;;;;;;;;;;;5066794;28;19912;-80
2023/03/15 08:57:16;;;;;;;;;;;;;;;;;;5060145;28;19958;-80
2023/03/15 08:59:42;;;;;;;;;;;;;;;;;;5060027;28;20292;-80
2023/03/15 09:02:07;;;;;;;;;;;;;;;;;;5062413;28;19920;-79
2023/03/15 09:04:32;;;;;;;;;;;;;;;;;;5060554;28;19986;-80
2023/03/15 09:06:57;;;;;;;;;;;;;;;;;;5063308;28;20322;-80
2023/03/15 09:09:22;;;;;;;;;;;;;;;;;;5071296;28;19913;-80
2023/03/15 09:11:47;;;;;;;;;;;;;;;;;;5049085;28;19931;-80
2023/03/15 09:14:13;;;;;;;;;;;;;;;;;;5060712;28;19963;-81
2023/03/15 09:16:38;;;;;;;;;;;;;;;;;;5063036;28;19913;-80
2023/03/15 09:19:03;;;;;;;;;;;;;;;;;;5062582;28;19916;-80
2023/03/15 09:21:28;;;;;;;;;;;;;;;;;;5050095;28;19920;-79
2023/03/15 09:23:53;;;;;;;;;;;;;;;;;;5062724;28;20284;-80
2023/03/15 09:26:18;;;;;;;;;;;;;;;;;;5045709;28;20035;-80
2023/03/15 09:28:43;;;;;;;;;;;;;;;;;;5065145;28;19931;-80
2023/03/15 09:31:08;;;;;;;;;;;;;;;;;;5061871;28;19937;-80
2023/03/15 09:33:33;;;;;;;;;;;;;;;;;;5059498;28;19925;-80
2023/03/15 09:35:59;;;;;;;;;;;;;;;;;;5074412;28;19896;-81
2023/03/15 09:38:24;;;;;;;;;;;;;;;;;;5063795;28;19916;-81
2023/03/15 09:40:49;;;;;;;;;;;;;;;;;;5081340;28;19975;-81
2023/03/15 09:43:14;;;;;;;;;;;;;;;;;;5073974;28;20016;-81
2023/03/15 09:45:39;;;;;;;;;;;;;;;;;;5061126;28;19942;-80
2023/03/15 09:48:04;;;;;;;;;;;;;;;;;;5078842;28;19922;-80
2023/03/15 09:50:29;;;;;;;;;;;;;;;;;;5073603;28;19980;-81
2023/03/15 09:52:55;;;;;;;;;;;;;;;;;;5069520;28;20430;-81
2023/03/15 09:55:20;;;;;;;;;;;;;;;;;;5064380;28;19913;-80
2023/03/15 09:57:45;;;;;;;;;;;;;;;;;;5072162;28;19928;-79
2023/03/15 10:00:11;;;;;;;;;;;;;;;;;;5067723;28;19945;-80
2023/03/15 10:02:36;;;;;;;;;;;;;;;;;;5057028;28;19912;-78
2023/03/15 10:05:01;;;;;;;;;;;;;;;;;;5063476;28;19912;-79
2023/03/15 10:07:26;;;;;;;;;;;;;;;;;;5065704;28;20010;-79
2023/03/15 10:09:51;;;;;;;;;;;;;;;;;;5059429;28;19916;-80
2023/03/15 10:12:16;;;;;;;;;;;;;;;;;;5081084;28;19921;-81
2023/03/15 10:14:41;;;;;;;;;;;;;;;;;;5083951;28;19920;-82
2023/03/15 10:17:07;;;;;;;;;;;;;;;;;;5065057;28;19917;-80
2023/03/15 10:19:32;;;;;;;;;;;;;;;;;;5081092;28;19912;-80
2023/03/15 10:21:57;;;;;;;;;;;;;;;;;;5083316;28;19920;-79
2023/03/15 10:24:22;;;;;;;;;;;;;;;;;;5079222;28;19923;-78
2023/03/15 10:26:47;;;;;;;;;;;;;;;;;;5065194;28;19972;-79
2023/03/15 10:29:13;;;;;;;;;;;;;;;;;;5075352;28;19916;-79
2023/03/15 10:31:38;;;;;;;;;;;;;;;;;;5074821;28;19928;-79
2023/03/15 10:34:03;;;;;;;;;;;;;;;;;;5071222;28;19936;-81
2023/03/15 10:36:28;;;;;;;;;;;;;;;;;;5072100;28;19934;-80
2023/03/15 10:38:53;;;;;;;;;;;;;;;;;;5079260;28;19987;-80
2023/03/15 10:41:18;;;;;;;;;;;;;;;;;;5052738;28;20332;-81
2023/03/15 10:43:43;;;;;;;;;;;;;;;;;;5071789;28;20275;-81
2023/03/15 10:46:09;;;;;;;;;;;;;;;;;;5072362;28;20356;-80
2023/03/15 10:48:34;;;;;;;;;;;;;;;;;;5051484;28;19935;-81
2023/03/15 10:50:59;;;;;;;;;;;;;;;;;;5073669;28;20310;-81
2023/03/15 10:53:24;;;;;;;;;;;;;;;;;;5071001;28;19958;-80
2023/03/15 10:55:49;;;;;;;;;;;;;;;;;;5073971;28;20335;-80
2023/03/15 10:58:14;;;;;;;;;;;;;;;;;;5074533;28;19920;-81
2023/03/15 11:00:40;;;;;;;;;;;;;;;;;;5056476;28;19951;-81
2023/03/15 11:03:05;;;;;;;;;;;;;;;;;;5068741;28;19920;-80
2023/03/15 11:05:30;;;;;;;;;;;;;;;;;;5064920;28;20349;-80
2023/03/15 11:07:56;;;;;;;;;;;;;;;;;;5080300;28;19912;-80
2023/03/15 11:10:21;;;;;;;;;;;;;;;;;;5076864;28;19924;-81
2023/03/15 11:12:47;;;;;;;;;;;;;;;;;;5070979;28;19940;-80
2023/03/15 11:15:14;;;;;;;;;;;;;;;;;;5082343;28;19928;-80
2023/03/15 11:17:39;;;;;;;;;;;;;;;;;;5073528;28;19916;-81
2023/03/15 11:20:12;;;;;;;;;;;;;;;;;;5081161;28;19893;-81
2023/03/15 11:22:37;;;;;;;;;;;;;;;;;;5062229;28;19912;-80
2023/03/15 11:25:02;;;;;;;;;;;;;;;;;;5087215;28;19909;-81
2023/03/15 11:27:27;;;;;;;;;;;;;;;;;;5080376;28;19948;-80
2023/03/15 11:29:52;;;;;;;;;;;;;;;;;;5085563;28;19916;-80
2023/03/15 11:32:18;;;;;;;;;;;;;;;;;;5090294;28;19913;-80
2023/03/15 11:34:43;;;;;;;;;;;;;;;;;;5082895;28;19932;-81
2023/03/15 11:37:08;;;;;;;;;;;;;;;;;;5064318;28;19912;-81
2023/03/15 11:39:33;;;;;;;;;;;;;;;;;;5063322;28;19908;-80
2023/03/15 11:41:58;;;;;;;;;;;;;;;;;;5065524;28;19995;-82
2023/03/15 11:44:23;;;;;;;;;;;;;;;;;;5093755;28;19908;-80
2023/03/15 11:46:48;;;;;;;;;;;;;;;;;;5086264;28;19915;-79
2023/03/15 11:49:13;;;;;;;;;;;;;;;;;;5066872;28;19952;-80
2023/03/15 11:51:38;;;;;;;;;;;;;;;;;;5077779;28;19912;-81
2023/03/15 11:54:04;;;;;;;;;;;;;;;;;;5066689;28;19893;-81
2023/03/15 11:56:29;;;;;;;;;;;;;;;;;;5089333;28;20371;-81
2023/03/15 11:59:00;;;;;;;;;;;;;;;;;;5093749;28;20220;-81
2023/03/15 12:01:25;;;;;;;;;;;;;;;;;;5062920;28;19924;-80
2023/03/15 12:03:50;;;;;;;;;;;;;;;;;;5071993;28;19948;-76
2023/03/15 12:06:16;;;;;;;;;;;;;;;;;;5057843;28;20404;-76
2023/03/15 12:08:41;;;;;;;;;;;;;;;;;;5038356;28;19909;-76
2023/03/15 12:11:06;;;;;;;;;;;;;;;;;;5053387;28;19921;-76
2023/03/15 12:13:31;;;;;;;;;;;;;;;;;;5057909;28;19913;-76
2023/03/15 12:15:56;;;;;;;;;;;;;;;;;;5054374;28;19917;-76
2023/03/15 12:18:22;;;;;;;;;;;;;;;;;;5055984;28;20000;-76
2023/03/15 12:20:47;;;;;;;;;;;;;;;;;;5060803;28;20283;-76
2023/03/15 12:23:12;;;;;;;;;;;;;;;;;;5054412;28;19919;-76
2023/03/15 12:25:37;;;;;;;;;;;;;;;;;;5060583;28;19913;-76
2023/03/15 12:28:02;;;;;;;;;;;;;;;;;;5055720;28;19920;-76
2023/03/15 12:30:27;;;;;;;;;;;;;;;;;;5058637;28;19920;-76
2023/03/15 12:32:52;;;;;;;;;;;;;;;;;;5056394;28;19915;-76
2023/03/15 12:35:18;;;;;;;;;;;;;;;;;;5057352;28;19952;-76
2023/03/15 12:37:43;;;;;;;;;;;;;;;;;;5058142;28;19913;-76
2023/03/15 12:40:09;;;;;;;;;;;;;;;;;;5060384;28;20230;-76
2023/03/15 12:42:34;;;;;;;;;;;;;;;;;;5059268;28;20380;-76
2023/03/15 12:44:59;;;;;;;;;;;;;;;;;;5059577;28;19909;-76
2023/03/15 12:47:24;;;;;;;;;;;;;;;;;;5050368;28;20291;-76
2023/03/15 12:49:49;;;;;;;;;;;;;;;;;;5058830;28;19957;-76
2023/03/15 12:52:14;;;;;;;;;;;;;;;;;;5061971;28;19920;-76
2023/03/15 12:54:40;;;;;;;;;;;;;;;;;;5060060;28;19908;-76
2023/03/15 12:57:05;;;;;;;;;;;;;;;;;;5064573;28;20379;-76
2023/03/15 12:59:30;;;;;;;;;;;;;;;;;;5064546;28;19913;-76
2023/03/15 13:01:55;;;;;;;;;;;;;;;;;;5062348;28;20346;-76
2023/03/15 13:04:21;;;;;;;;;;;;;;;;;;5061104;28;20430;-75
2023/03/15 13:06:46;;;;;;;;;;;;;;;;;;5060636;28;21488;-76
2023/03/15 13:09:11;;;;;;;;;;;;;;;;;;5062437;28;19917;-76
2023/03/15 13:11:36;;;;;;;;;;;;;;;;;;5055656;28;19912;-74
2023/03/15 13:14:01;;;;;;;;;;;;;;;;;;5060433;28;19985;-76
2023/03/15 13:16:26;;;;;;;;;;;;;;;;;;5046337;28;19924;-76
2023/03/15 13:18:52;;;;;;;;;;;;;;;;;;5057273;28;19917;-76
2023/03/15 13:21:17;;;;;;;;;;;;;;;;;;5063441;28;19942;-76
2023/03/15 13:23:42;;;;;;;;;;;;;;;;;;5060825;28;20339;-75
2023/03/15 13:26:07;;;;;;;;;;;;;;;;;;5059219;28;19909;-75
2023/03/15 13:28:36;;;;;;;;;;;;;;;;;;5065365;28;19913;-76
2023/03/15 13:31:01;;;;;;;;;;;;;;;;;;5057400;28;20338;-75
2023/03/15 13:33:27;;;;;;;;;;;;;;;;;;5065285;28;19912;-75
2023/03/15 13:35:52;;;;;;;;;;;;;;;;;;5064391;28;20372;-75
2023/03/15 13:38:17;;;;;;;;;;;;;;;;;;5063658;28;20419;-75
2023/03/15 13:40:42;;;;;;;;;;;;;;;;;;5066776;28;20367;-75
2023/03/15 13:43:07;;;;;;;;;;;;;;;;;;5058823;28;19912;-75
2023/03/15 13:45:32;;;;;;;;;;;;;;;;;;5065439;28;19920;-75
2023/03/15 13:47:57;;;;;;;;;;;;;;;;;;5064250;28;19961;-75
2023/03/15 13:50:22;;;;;;;;;;;;;;;;;;5063015;28;20271;-75
2023/03/15 13:52:47;;;;;;;;;;;;;;;;;;5062445;28;19913;-75
2023/03/15 13:55:13;;;;;;;;;;;;;;;;;;5061931;28;20360;-75
2023/03/15 13:57:38;;;;;;;;;;;;;;;;;;5067737;28;19916;-75
2023/03/15 14:00:10;;;;;;;;;;;;;;;;;;5061076;28;19916;-75
2023/03/15 14:02:35;;;;;;;;;;;;;;;;;;5061567;28;19923;-75
2023/03/15 14:05:00;;;;;;;;;;;;;;;;;;5045697;28;19999;-75
2023/03/15 14:07:25;;;;;;;;;;;;;;;;;;5065880;28;19958;-75
2023/03/15 14:09:50;;;;;;;;;;;;;;;;;;5057671;28;19909;-75
2023/03/15 14:12:16;;;;;;;;;;;;;;;;;;5059833;28;19917;-75
2023/03/15 14:14:41;;;;;;;;;;;;;;;;;;5058662;28;20344;-75
2023/03/15 14:17:06;;;;;;;;;;;;;;;;;;5060621;28;19917;-75
2023/03/15 14:19:31;;;;;;;;;;;;;;;;;;5059569;28;19924;-75
2023/03/15 14:21:56;;;;;;;;;;;;;;;;;;5061132;28;19916;-75
2023/03/15 14:24:21;;;;;;;;;;;;;;;;;;5057560;28;19915;-75
2023/03/15 14:26:46;;;;;;;;;;;;;;;;;;5062121;28;19920;-75
2023/03/15 14:29:12;;;;;;;;;;;;;;;;;;5057790;28;19916;-75
2023/03/15 14:31:37;;;;;;;;;;;;;;;;;;5061297;28;19965;-75
2023/03/15 14:34:02;;;;;;;;;;;;;;;;;;5059688;28;19912;-74
2023/03/15 14:36:27;;;;;;;;;;;;;;;;;;5046344;28;19928;-75
2023/03/15 14:38:52;;;;;;;;;;;;;;;;;;5066892;28;19923;-75
2023/03/15 14:41:18;;;;;;;;;;;;;;;;;;5061068;28;19913;-74
2023/03/15 14:43:43;;;;;;;;;;;;;;;;;;5040532;28;20030;-75
2023/03/15 14:46:08;;;;;;;;;;;;;;;;;;5043346;28;19935;-75
2023/03/15 14:48:33;;;;;;;;;;;;;;;;;;5056795;28;19919;-75
2023/03/15 14:50:58;;;;;;;;;;;;;;;;;;5063857;28;19908;-74
2023/03/15 14:53:23;;;;;;;;;;;;;;;;;;5043588;28;20265;-74
2023/03/15 14:55:48;;;;;;;;;;;;;;;;;;5060049;28;19917;-74
2023/03/15 14:58:13;;;;;;;;;;;;;;;;;;5062577;28;20329;-74
2023/03/15 15:00:39;;;;;;;;;;;;;;;;;;5062169;28;19920;-74
2023/03/15 15:03:04;;;;;;;;;;;;;;;;;;5043071;28;19920;-74
2023/03/15 15:05:29;;;;;;;;;;;;;;;;;;5063163;28;19913;-76
2023/03/15 15:07:54;;;;;;;;;;;;;;;;;;5060515;28;19913;-76
2023/03/15 15:10:20;;;;;;;;;;;;;;;;;;5044231;28;20391;-76
2023/03/15 15:12:45;;;;;;;;;;;;;;;;;;5058535;28;20011;-76
2023/03/15 15:15:10;;;;;;;;;;;;;;;;;;5045007;28;19999;-76
2023/03/15 15:17:35;;;;;;;;;;;;;;;;;;5056146;28;20012;-75
2023/03/15 15:20:00;;;;;;;;;;;;;;;;;;5059247;28;19940;-75
2023/03/15 15:22:26;;;;;;;;;;;;;;;;;;5055741;28;20062;-75
2023/03/15 15:24:51;;;;;;;;;;;;;;;;;;5061400;28;19956;-75
2023/03/15 15:27:16;;;;;;;;;;;;;;;;;;5058310;28;19921;-76
2023/03/15 15:29:41;;;;;;;;;;;;;;;;;;5060177;28;19916;-75
2023/03/15 15:32:06;;;;;;;;;;;;;;;;;;5059820;28;19921;-76
2023/03/15 15:34:32;;;;;;;;;;;;;;;;;;5046942;28;19931;-75
2023/03/15 15:36:57;;;;;;;;;;;;;;;;;;5058833;28;19938;-74
2023/03/15 15:39:23;;;;;;;;;;;;;;;;;;5059751;28;19939;-75
2023/03/15 15:41:48;;;;;;;;;;;;;;;;;;5062644;28;19999;-76
2023/03/15 15:44:14;;;;;;;;;;;;;;;;;;5056792;28;19968;-76
2023/03/15 15:46:39;;;;;;;;;;;;;;;;;;5057057;28;19948;-75
2023/03/15 15:49:04;;;;;;;;;;;;;;;;;;5065696;28;19923;-76
2023/03/15 15:51:30;;;;;;;;;;;;;;;;;;5052789;28;19917;-77
2023/03/15 15:53:55;;;;;;;;;;;;;;;;;;5060063;28;20014;-75
2023/03/15 15:56:20;;;;;;;;;;;;;;;;;;5057064;28;19986;-74
2023/03/15 15:58:46;;;;;;;;;;;;;;;;;;5060900;28;19924;-74
2023/03/15 16:01:11;;;;;;;;;;;;;;;;;;5039463;28;20042;-75
2023/03/15 16:03:36;;;;;;;;;;;;;;;;;;5062010;28;19948;-74
2023/03/15 16:06:01;;;;;;;;;;;;;;;;;;5055937;28;19912;-76
2023/03/15 16:08:26;;;;;;;;;;;;;;;;;;5054797;28;20368;-75
2023/03/15 16:10:51;;;;;;;;;;;;;;;;;;5054071;28;19920;-75
2023/03/15 16:13:16;;;;;;;;;;;;;;;;;;5050716;28;19959;-75
2023/03/15 16:15:41;;;;;;;;;;;;;;;;;;5056384;28;20265;-74
2023/03/15 16:18:07;;;;;;;;;;;;;;;;;;5055261;28;20380;-75
2023/03/15 16:20:32;;;;;;;;;;;;;;;;;;5054165;28;20441;-75
2023/03/15 16:22:57;;;;;;;;;;;;;;;;;;5059092;28;19948;-75
2023/03/15 16:25:24;;;;;;;;;;;;;;;;;;5047239;28;19959;-75
2023/03/15 16:27:49;;;;;;;;;;;;;;;;;;5047576;28;20380;-74
2023/03/15 16:30:14;;;;;;;;;;;;;;;;;;5035237;28;20313;-75
2023/03/15 16:32:39;;;;;;;;;;;;;;;;;;5059139;28;20414;-75